»·PEaware :: N2365C KSNA-KSNA

N2365C :: KSNA-KSNA

FLIGHT INFORMATION

Flight Status: Arrived
Operator: Privately registered:
United States
More flights under this callsign
Pilot: Anonymous 31979 (31979)
Aircraft: Unknown
(CE T)
More flights by this aircraft type
Origin: KSNA John Wayne-Orange Co
United States
Destination: KSNA John Wayne-Orange Co
United States
More flights between these airports :: More routes between these airports
Route: KSNA SLI KSNA
File this flight plan on PilotEdge
Remarks:
Altitude:
(Current/Filed)
3,000ft
Speed:
(Current/Filed)
140kts
Departed: 16-Nov-20 12:31 PM
Arrived: 16-Nov-20 12:57 PM
Distance/Time
Traveled:
0nm/0:25
Distance/Time
To Go:
Arrived

Flight Plot

Page will automatically refresh every two minutes.


Map Options




Map Legend


Flown Route
Filed Route
Departure Airport
Arrival Airport
Navaid (VOR, NDB)
Fix

Horizontal Profiles

Position Reports

Time Latitude Longitude Heading Altitude Ground
Speed
16-Nov-20 12:08 33.676081 -117.870908 219 60ft 0kts
16-Nov-20 12:09 33.676081 -117.870908 219 60ft 0kts
16-Nov-20 12:10 33.676081 -117.870908 219 60ft 0kts
16-Nov-20 12:11 33.676081 -117.870908 219 60ft 0kts
16-Nov-20 12:12 33.676081 -117.870908 219 60ft 0kts
16-Nov-20 12:13 33.676081 -117.870908 219 60ft 0kts
16-Nov-20 12:14 33.676081 -117.870908 219 60ft 0kts
16-Nov-20 12:15 33.676081 -117.870908 219 60ft 0kts
16-Nov-20 12:16 33.676081 -117.870908 219 60ft 0kts
16-Nov-20 12:17 33.676081 -117.870908 219 60ft 0kts
16-Nov-20 12:19 33.676081 -117.870908 219 60ft 0kts
16-Nov-20 12:20 33.676081 -117.870908 219 60ft 0kts
16-Nov-20 12:21 33.676081 -117.870908 219 60ft 0kts
16-Nov-20 12:22 33.676058 -117.870926 208 60ft 2kts
16-Nov-20 12:23 33.675766 -117.870303 53 60ft 4kts
16-Nov-20 12:24 33.676931 -117.869556 25 60ft 7kts
16-Nov-20 12:25 33.679113 -117.868173 25 60ft 9kts
16-Nov-20 12:26 33.681103 -117.867055 41 60ft 7kts
16-Nov-20 12:27 33.681258 -117.866581 99 60ft 0kts
16-Nov-20 12:28 33.681258 -117.866581 99 60ft 0kts
16-Nov-20 12:29 33.681258 -117.866581 99 60ft 0kts
16-Nov-20 12:30 33.681258 -117.866578 99 60ft 0kts
16-Nov-20 12:31 33.673215 -117.870313 208 332ft 94kts
16-Nov-20 12:32 33.650611 -117.901135 232 1082ft 127kts
16-Nov-20 12:33 33.629089 -117.934485 232 1779ft 125kts
16-Nov-20 12:34 33.607998 -117.967176 232 2472ft 120kts
16-Nov-20 12:35 33.593376 -118.000759 291 3005ft 127kts
16-Nov-20 12:36 33.628298 -118.004276 11 3011ft 144kts
16-Nov-20 12:37 33.667986 -117.994554 11 3010ft 146kts
16-Nov-20 12:38 33.707839 -117.984783 11 3009ft 146kts
16-Nov-20 12:38 33.741009 -117.976534 16 3005ft 147kts
16-Nov-20 12:39 33.777591 -117.954276 27 3009ft 147kts
16-Nov-20 12:41 33.820022 -117.928239 27 3009ft 147kts
16-Nov-20 12:41 33.850255 -117.909668 27 3009ft 147kts
16-Nov-20 12:42 33.886633 -117.887300 26 3010ft 147kts
16-Nov-20 12:43 33.913957 -117.856285 90 3012ft 146kts
16-Nov-20 12:44 33.913053 -117.807062 91 3010ft 147kts
16-Nov-20 12:45 33.912145 -117.758841 91 3007ft 137kts
16-Nov-20 12:46 33.906217 -117.716269 145 3003ft 131kts
16-Nov-20 12:47 33.879684 -117.737300 222 3012ft 130kts
16-Nov-20 12:48 33.848767 -117.758714 206 3007ft 124kts
16-Nov-20 12:49 33.820117 -117.777112 208 3002ft 102kts
16-Nov-20 12:50 33.794386 -117.794178 208 2543ft 108kts
16-Nov-20 12:51 33.769364 -117.809437 206 2028ft 94kts
16-Nov-20 12:52 33.745555 -117.823938 206 1591ft 86kts
16-Nov-20 12:53 33.724372 -117.837817 208 1090ft 89kts
16-Nov-20 12:54 33.701927 -117.852239 207 533ft 90kts
16-Nov-20 12:55 33.681640 -117.865099 206 75ft 63kts
16-Nov-20 12:56 33.675946 -117.869730 296 60ft 0kts
16-Nov-20 12:57 33.675946 -117.869730 296 60ft 0kts
16-Nov-20 12:58 33.676268 -117.870806 259 60ft 7kts
16-Nov-20 12:59 33.675844 -117.870934 187 60ft 0kts
16-Nov-20 13:00 33.675844 -117.870934 187 60ft 0kts

Navigation Log

Ident Type
Flight plan parsing failed, navigation log unavailable